PROFILE

 METAR AND TAF INFORMATION
ADDS - METARS form results

(1507 UTC 20 June 2019)
http://aviationweather.gov/metar/data/
 
ENGM 201450Z 20012KT 170V230 9999 FEW016 SCT027 BKN042 18/14 Q1003 NOSIG
ENGM 201420Z 19010KT 9999 FEW013 BKN026 18/13 Q1004 TEMPO BKN012
TAF ENGM 2012/2112 20008KT 9999 -SHRA BKN008 BECMG 2012/2014 FEW008 BKN020 PROB30 TEMPO 2013/2016 4000 TSRA BKN012 SCT025CB PROB30 2021/2105 0800 FG VV002 

 AIRPORT MAP

 RUNWAY INFORMATION
Runway 01L Runway length 11811 ft Runway width 148 ft
Runway elevation 656 ft Runway displaced threshold 0 ft Runway heading 16
Runway 19R Runway length 11811 ft Runway width 148 ft
Runway elevation 675 ft Runway displaced threshold 0 ft Runway heading 196
Runway 01R Runway length 9678 ft Runway width 148 ft
Runway elevation 670 ft Runway displaced threshold 0 ft Runway heading 16
Runway 19L Runway length 9678 ft Runway width 148 ft
Runway elevation 681 ft Runway displaced threshold 0 ft Runway heading 196

 AIRPORT FREQUENCIES
Type APP Name APP Frequency 119.975 MHZ
Type ATIS Name ATIS Frequency 126.125 MHZ
Type CLD Name CLNC DEL Frequency 121.6 MHZ
Type DIR Name DIRECTOR Frequency 131.35 MHZ
Type GND Name GND Frequency 121.925 MHZ
Type MISC Name DE ICING Frequency 131.975 MHZ
Type OPS Name WINGOPS Frequency 29.38 MHZ
Type PMSV Name PMSV METRO Frequency 134.175 MHZ
Type TWR Name TWR Frequency 118.3 MHZ

 AIRPORT NEAR NAVIGATION AIDS
Type NDB Name Bergerud Frequency 316 KHZ
Type VOR-DME Name Gardermoen Frequency 115950 KHZ
Type NDB Name Oppaker Frequency 334 KHZ
Type NDB Name Solberg Frequency 414 KHZ
Type NDB Name Soknen Frequency 387 KHZ